sensor_id;sensor_type;location;lat;lon;timestamp;P1;durP1;ratioP1;P2;durP2;ratioP2
76852;SDS011;65825;52.232;10.566;2023-03-19T00:01:57;13.30;;;6.55;;
76852;SDS011;65825;52.232;10.566;2023-03-19T00:04:24;13.20;;;7.30;;
76852;SDS011;65825;52.232;10.566;2023-03-19T00:06:50;11.57;;;6.85;;
76852;SDS011;65825;52.232;10.566;2023-03-19T00:09:16;11.93;;;6.43;;
76852;SDS011;65825;52.232;10.566;2023-03-19T00:11:43;8.52;;;4.82;;
76852;SDS011;65825;52.232;10.566;2023-03-19T00:14:08;8.32;;;5.60;;
76852;SDS011;65825;52.232;10.566;2023-03-19T00:16:33;12.48;;;5.88;;
76852;SDS011;65825;52.232;10.566;2023-03-19T00:19:00;8.90;;;5.47;;
76852;SDS011;65825;52.232;10.566;2023-03-19T00:21:26;13.23;;;6.03;;
76852;SDS011;65825;52.232;10.566;2023-03-19T00:23:51;8.77;;;4.95;;
76852;SDS011;65825;52.232;10.566;2023-03-19T00:26:17;8.15;;;5.53;;
76852;SDS011;65825;52.232;10.566;2023-03-19T00:28:43;10.35;;;4.93;;
76852;SDS011;65825;52.232;10.566;2023-03-19T00:31:13;7.32;;;4.40;;
76852;SDS011;65825;52.232;10.566;2023-03-19T00:33:40;11.85;;;4.95;;
76852;SDS011;65825;52.232;10.566;2023-03-19T00:36:06;10.60;;;5.00;;
76852;SDS011;65825;52.232;10.566;2023-03-19T00:38:32;7.38;;;4.47;;
76852;SDS011;65825;52.232;10.566;2023-03-19T00:40:59;8.15;;;4.35;;
76852;SDS011;65825;52.232;10.566;2023-03-19T00:43:25;6.63;;;3.30;;
76852;SDS011;65825;52.232;10.566;2023-03-19T00:45:51;10.02;;;3.72;;
76852;SDS011;65825;52.232;10.566;2023-03-19T00:48:16;7.03;;;3.60;;
76852;SDS011;65825;52.232;10.566;2023-03-19T00:50:42;6.28;;;3.15;;
76852;SDS011;65825;52.232;10.566;2023-03-19T00:53:07;7.03;;;3.47;;
76852;SDS011;65825;52.232;10.566;2023-03-19T00:55:32;6.83;;;3.37;;
76852;SDS011;65825;52.232;10.566;2023-03-19T00:57:58;4.87;;;3.13;;
76852;SDS011;65825;52.232;10.566;2023-03-19T01:00:23;8.10;;;3.20;;
76852;SDS011;65825;52.232;10.566;2023-03-19T01:02:48;8.18;;;4.03;;
76852;SDS011;65825;52.232;10.566;2023-03-19T01:05:14;11.27;;;3.37;;
76852;SDS011;65825;52.232;10.566;2023-03-19T01:07:39;5.10;;;2.60;;
76852;SDS011;65825;52.232;10.566;2023-03-19T01:10:07;7.80;;;2.97;;
76852;SDS011;65825;52.232;10.566;2023-03-19T01:12:33;4.65;;;2.65;;
76852;SDS011;65825;52.232;10.566;2023-03-19T01:14:59;6.10;;;3.10;;
76852;SDS011;65825;52.232;10.566;2023-03-19T01:17:24;7.05;;;3.40;;
76852;SDS011;65825;52.232;10.566;2023-03-19T01:19:50;5.13;;;2.27;;
76852;SDS011;65825;52.232;10.566;2023-03-19T01:22:15;6.28;;;3.40;;
76852;SDS011;65825;52.232;10.566;2023-03-19T01:24:41;4.93;;;3.03;;
76852;SDS011;65825;52.232;10.566;2023-03-19T01:27:07;5.32;;;3.15;;
76852;SDS011;65825;52.232;10.566;2023-03-19T01:29:32;6.15;;;3.15;;
76852;SDS011;65825;52.232;10.566;2023-03-19T01:31:58;7.35;;;3.13;;
76852;SDS011;65825;52.232;10.566;2023-03-19T01:34:23;6.03;;;3.20;;
76852;SDS011;65825;52.232;10.566;2023-03-19T01:36:48;4.97;;;3.20;;
76852;SDS011;65825;52.232;10.566;2023-03-19T01:39:14;6.30;;;3.05;;
76852;SDS011;65825;52.232;10.566;2023-03-19T01:41:39;7.47;;;3.50;;
76852;SDS011;65825;52.232;10.566;2023-03-19T01:46:50;7.28;;;3.75;;
76852;SDS011;65825;52.232;10.566;2023-03-19T01:49:15;7.57;;;3.47;;
76852;SDS011;65825;52.232;10.566;2023-03-19T01:51:44;6.50;;;3.20;;
76852;SDS011;65825;52.232;10.566;2023-03-19T01:54:12;7.95;;;3.17;;
76852;SDS011;65825;52.232;10.566;2023-03-19T01:56:39;5.22;;;2.90;;
76852;SDS011;65825;52.232;10.566;2023-03-19T01:59:11;5.53;;;3.08;;
76852;SDS011;65825;52.232;10.566;2023-03-19T02:01:56;6.10;;;3.42;;
76852;SDS011;65825;52.232;10.566;2023-03-19T02:04:25;4.97;;;3.08;;
76852;SDS011;65825;52.232;10.566;2023-03-19T02:06:56;6.72;;;3.50;;
76852;SDS011;65825;52.232;10.566;2023-03-19T02:09:25;6.28;;;3.20;;
76852;SDS011;65825;52.232;10.566;2023-03-19T02:11:52;7.57;;;3.63;;
76852;SDS011;65825;52.232;10.566;2023-03-19T02:16:44;8.65;;;4.03;;
76852;SDS011;65825;52.232;10.566;2023-03-19T02:19:11;5.50;;;3.25;;
76852;SDS011;65825;52.232;10.566;2023-03-19T02:21:41;9.85;;;3.78;;
76852;SDS011;65825;52.232;10.566;2023-03-19T02:24:21;7.03;;;3.45;;
76852;SDS011;65825;52.232;10.566;2023-03-19T02:26:59;10.07;;;4.30;;
76852;SDS011;65825;52.232;10.566;2023-03-19T02:29:25;5.85;;;3.92;;
76852;SDS011;65825;52.232;10.566;2023-03-19T02:31:50;8.57;;;4.03;;
76852;SDS011;65825;52.232;10.566;2023-03-19T02:36:46;9.55;;;4.15;;
76852;SDS011;65825;52.232;10.566;2023-03-19T02:39:26;6.20;;;3.95;;
76852;SDS011;65825;52.232;10.566;2023-03-19T02:41:56;8.23;;;4.35;;
76852;SDS011;65825;52.232;10.566;2023-03-19T02:44:23;6.10;;;3.45;;
76852;SDS011;65825;52.232;10.566;2023-03-19T02:46:48;9.33;;;3.40;;
76852;SDS011;65825;52.232;10.566;2023-03-19T02:49:13;6.38;;;3.80;;
76852;SDS011;65825;52.232;10.566;2023-03-19T02:51:39;6.93;;;3.92;;
76852;SDS011;65825;52.232;10.566;2023-03-19T02:56:31;6.53;;;3.77;;
76852;SDS011;65825;52.232;10.566;2023-03-19T02:58:57;4.40;;;2.92;;
76852;SDS011;65825;52.232;10.566;2023-03-19T03:01:22;7.60;;;4.00;;
76852;SDS011;65825;52.232;10.566;2023-03-19T03:03:48;7.93;;;4.18;;
76852;SDS011;65825;52.232;10.566;2023-03-19T03:06:13;7.93;;;4.07;;
76852;SDS011;65825;52.232;10.566;2023-03-19T03:08:39;7.82;;;4.05;;
76852;SDS011;65825;52.232;10.566;2023-03-19T03:11:05;11.18;;;4.40;;
76852;SDS011;65825;52.232;10.566;2023-03-19T03:13:30;5.40;;;3.40;;
76852;SDS011;65825;52.232;10.566;2023-03-19T03:15:56;7.50;;;4.43;;
76852;SDS011;65825;52.232;10.566;2023-03-19T03:18:21;9.90;;;4.00;;
76852;SDS011;65825;52.232;10.566;2023-03-19T03:20:46;5.90;;;3.38;;
76852;SDS011;65825;52.232;10.566;2023-03-19T03:23:12;6.60;;;4.30;;
76852;SDS011;65825;52.232;10.566;2023-03-19T03:25:37;9.07;;;4.70;;
76852;SDS011;65825;52.232;10.566;2023-03-19T03:28:02;7.43;;;4.43;;
76852;SDS011;65825;52.232;10.566;2023-03-19T03:30:27;8.60;;;4.28;;
76852;SDS011;65825;52.232;10.566;2023-03-19T03:32:53;6.43;;;4.28;;
76852;SDS011;65825;52.232;10.566;2023-03-19T03:35:18;7.35;;;4.07;;
76852;SDS011;65825;52.232;10.566;2023-03-19T03:37:47;8.80;;;4.38;;
76852;SDS011;65825;52.232;10.566;2023-03-19T03:40:13;7.68;;;4.03;;
76852;SDS011;65825;52.232;10.566;2023-03-19T03:42:40;9.90;;;4.35;;
76852;SDS011;65825;52.232;10.566;2023-03-19T03:45:05;8.48;;;4.45;;
76852;SDS011;65825;52.232;10.566;2023-03-19T03:47:32;9.65;;;4.40;;
76852;SDS011;65825;52.232;10.566;2023-03-19T03:49:57;8.13;;;4.47;;
76852;SDS011;65825;52.232;10.566;2023-03-19T03:52:22;8.45;;;3.83;;
76852;SDS011;65825;52.232;10.566;2023-03-19T03:54:47;7.70;;;4.30;;
76852;SDS011;65825;52.232;10.566;2023-03-19T03:57:13;8.00;;;4.70;;
76852;SDS011;65825;52.232;10.566;2023-03-19T03:59:38;6.67;;;3.87;;
76852;SDS011;65825;52.232;10.566;2023-03-19T04:02:03;7.23;;;4.20;;
76852;SDS011;65825;52.232;10.566;2023-03-19T04:04:30;9.35;;;4.65;;
76852;SDS011;65825;52.232;10.566;2023-03-19T04:06:55;9.07;;;4.20;;
76852;SDS011;65825;52.232;10.566;2023-03-19T04:09:21;7.25;;;4.25;;
76852;SDS011;65825;52.232;10.566;2023-03-19T04:11:46;7.90;;;4.50;;
76852;SDS011;65825;52.232;10.566;2023-03-19T04:14:12;6.57;;;3.80;;
76852;SDS011;65825;52.232;10.566;2023-03-19T04:16:38;7.60;;;3.37;;
76852;SDS011;65825;52.232;10.566;2023-03-19T04:19:03;7.20;;;4.00;;
76852;SDS011;65825;52.232;10.566;2023-03-19T04:21:28;7.85;;;4.13;;
76852;SDS011;65825;52.232;10.566;2023-03-19T04:23:54;6.38;;;4.03;;
76852;SDS011;65825;52.232;10.566;2023-03-19T04:26:19;7.77;;;4.10;;
76852;SDS011;65825;52.232;10.566;2023-03-19T04:28:45;7.28;;;3.85;;
76852;SDS011;65825;52.232;10.566;2023-03-19T04:31:10;7.70;;;4.30;;
76852;SDS011;65825;52.232;10.566;2023-03-19T04:33:36;7.05;;;4.28;;
76852;SDS011;65825;52.232;10.566;2023-03-19T04:36:02;7.00;;;4.03;;
76852;SDS011;65825;52.232;10.566;2023-03-19T04:38:27;6.00;;;3.90;;
76852;SDS011;65825;52.232;10.566;2023-03-19T04:40:53;7.85;;;4.05;;
76852;SDS011;65825;52.232;10.566;2023-03-19T04:45:45;4.83;;;3.20;;
76852;SDS011;65825;52.232;10.566;2023-03-19T04:48:10;5.07;;;3.47;;
76852;SDS011;65825;52.232;10.566;2023-03-19T04:50:35;6.93;;;3.60;;
76852;SDS011;65825;52.232;10.566;2023-03-19T04:53:01;7.45;;;4.38;;
76852;SDS011;65825;52.232;10.566;2023-03-19T04:55:26;5.85;;;3.67;;
76852;SDS011;65825;52.232;10.566;2023-03-19T04:57:52;5.55;;;3.60;;
76852;SDS011;65825;52.232;10.566;2023-03-19T05:00:17;7.97;;;3.53;;
76852;SDS011;65825;52.232;10.566;2023-03-19T05:02:43;5.88;;;3.75;;
76852;SDS011;65825;52.232;10.566;2023-03-19T05:05:08;7.60;;;3.85;;
76852;SDS011;65825;52.232;10.566;2023-03-19T05:07:36;5.90;;;3.80;;
76852;SDS011;65825;52.232;10.566;2023-03-19T05:10:01;7.10;;;3.78;;
76852;SDS011;65825;52.232;10.566;2023-03-19T05:12:27;8.95;;;3.85;;
76852;SDS011;65825;52.232;10.566;2023-03-19T05:14:52;6.03;;;4.17;;
76852;SDS011;65825;52.232;10.566;2023-03-19T05:17:17;6.63;;;3.80;;
76852;SDS011;65825;52.232;10.566;2023-03-19T05:19:43;7.73;;;3.90;;
76852;SDS011;65825;52.232;10.566;2023-03-19T05:22:08;5.88;;;3.80;;
76852;SDS011;65825;52.232;10.566;2023-03-19T05:24:33;8.55;;;3.78;;
76852;SDS011;65825;52.232;10.566;2023-03-19T05:26:59;5.93;;;3.73;;
76852;SDS011;65825;52.232;10.566;2023-03-19T05:29:24;5.93;;;3.72;;
76852;SDS011;65825;52.232;10.566;2023-03-19T05:31:50;5.18;;;3.42;;
76852;SDS011;65825;52.232;10.566;2023-03-19T05:34:15;7.38;;;4.30;;
76852;SDS011;65825;52.232;10.566;2023-03-19T05:36:41;7.83;;;4.37;;
76852;SDS011;65825;52.232;10.566;2023-03-19T05:39:06;11.43;;;4.73;;
76852;SDS011;65825;52.232;10.566;2023-03-19T05:41:32;6.07;;;3.97;;
76852;SDS011;65825;52.232;10.566;2023-03-19T05:43:57;6.60;;;4.40;;
76852;SDS011;65825;52.232;10.566;2023-03-19T05:46:22;7.38;;;3.90;;
76852;SDS011;65825;52.232;10.566;2023-03-19T05:48:48;7.47;;;4.03;;
76852;SDS011;65825;52.232;10.566;2023-03-19T05:51:14;6.28;;;3.75;;
76852;SDS011;65825;52.232;10.566;2023-03-19T05:53:39;6.70;;;4.60;;
76852;SDS011;65825;52.232;10.566;2023-03-19T05:56:05;7.05;;;4.10;;
76852;SDS011;65825;52.232;10.566;2023-03-19T05:58:30;8.73;;;4.55;;
76852;SDS011;65825;52.232;10.566;2023-03-19T06:00:56;6.88;;;4.32;;
76852;SDS011;65825;52.232;10.566;2023-03-19T06:03:22;9.05;;;4.32;;
76852;SDS011;65825;52.232;10.566;2023-03-19T06:05:48;7.25;;;3.95;;
76852;SDS011;65825;52.232;10.566;2023-03-19T06:08:14;10.48;;;5.05;;
76852;SDS011;65825;52.232;10.566;2023-03-19T06:10:40;9.18;;;4.65;;
76852;SDS011;65825;52.232;10.566;2023-03-19T06:13:05;9.43;;;5.00;;
76852;SDS011;65825;52.232;10.566;2023-03-19T06:15:30;7.80;;;4.80;;
76852;SDS011;65825;52.232;10.566;2023-03-19T06:17:56;8.05;;;4.47;;
76852;SDS011;65825;52.232;10.566;2023-03-19T06:20:21;7.15;;;4.35;;
76852;SDS011;65825;52.232;10.566;2023-03-19T06:22:47;8.50;;;3.97;;
76852;SDS011;65825;52.232;10.566;2023-03-19T06:25:12;9.13;;;4.78;;
76852;SDS011;65825;52.232;10.566;2023-03-19T06:27:37;7.13;;;4.40;;
76852;SDS011;65825;52.232;10.566;2023-03-19T06:30:03;10.70;;;5.40;;
76852;SDS011;65825;52.232;10.566;2023-03-19T06:32:29;8.30;;;4.93;;
76852;SDS011;65825;52.232;10.566;2023-03-19T06:34:54;6.88;;;4.03;;
76852;SDS011;65825;52.232;10.566;2023-03-19T06:37:20;9.18;;;4.80;;
76852;SDS011;65825;52.232;10.566;2023-03-19T06:39:45;8.73;;;4.10;;
76852;SDS011;65825;52.232;10.566;2023-03-19T06:42:11;8.98;;;4.75;;
76852;SDS011;65825;52.232;10.566;2023-03-19T06:44:37;7.40;;;4.45;;
76852;SDS011;65825;52.232;10.566;2023-03-19T06:47:02;7.82;;;4.65;;
76852;SDS011;65825;52.232;10.566;2023-03-19T06:49:27;8.35;;;4.72;;
76852;SDS011;65825;52.232;10.566;2023-03-19T06:51:53;6.80;;;4.20;;
76852;SDS011;65825;52.232;10.566;2023-03-19T06:54:18;6.63;;;4.30;;
76852;SDS011;65825;52.232;10.566;2023-03-19T06:56:43;8.07;;;4.47;;
76852;SDS011;65825;52.232;10.566;2023-03-19T06:59:09;6.72;;;4.05;;
76852;SDS011;65825;52.232;10.566;2023-03-19T07:01:37;6.22;;;4.05;;
76852;SDS011;65825;52.232;10.566;2023-03-19T07:04:04;9.60;;;4.22;;
76852;SDS011;65825;52.232;10.566;2023-03-19T07:06:29;9.40;;;4.30;;
76852;SDS011;65825;52.232;10.566;2023-03-19T07:08:55;8.07;;;4.38;;
76852;SDS011;65825;52.232;10.566;2023-03-19T07:11:20;10.00;;;4.80;;
76852;SDS011;65825;52.232;10.566;2023-03-19T07:13:45;7.57;;;4.50;;
76852;SDS011;65825;52.232;10.566;2023-03-19T07:16:11;6.30;;;4.05;;
76852;SDS011;65825;52.232;10.566;2023-03-19T07:18:36;7.93;;;4.45;;
76852;SDS011;65825;52.232;10.566;2023-03-19T07:21:01;10.10;;;5.53;;
76852;SDS011;65825;52.232;10.566;2023-03-19T07:23:27;10.80;;;6.25;;
76852;SDS011;65825;52.232;10.566;2023-03-19T07:25:52;8.13;;;4.60;;
76852;SDS011;65825;52.232;10.566;2023-03-19T07:28:17;9.32;;;4.63;;
76852;SDS011;65825;52.232;10.566;2023-03-19T07:30:43;9.37;;;4.57;;
76852;SDS011;65825;52.232;10.566;2023-03-19T07:33:08;8.07;;;4.15;;
76852;SDS011;65825;52.232;10.566;2023-03-19T07:35:34;6.97;;;3.70;;
76852;SDS011;65825;52.232;10.566;2023-03-19T07:37:59;7.88;;;3.83;;
76852;SDS011;65825;52.232;10.566;2023-03-19T07:40:26;8.35;;;4.20;;
76852;SDS011;65825;52.232;10.566;2023-03-19T07:45:18;8.90;;;4.50;;
76852;SDS011;65825;52.232;10.566;2023-03-19T07:47:43;7.32;;;4.32;;
76852;SDS011;65825;52.232;10.566;2023-03-19T07:50:08;9.45;;;4.40;;
76852;SDS011;65825;52.232;10.566;2023-03-19T07:52:35;7.72;;;4.15;;
76852;SDS011;65825;52.232;10.566;2023-03-19T07:55:00;8.57;;;4.22;;
76852;SDS011;65825;52.232;10.566;2023-03-19T07:57:25;7.55;;;4.32;;
76852;SDS011;65825;52.232;10.566;2023-03-19T07:59:51;12.20;;;5.10;;
76852;SDS011;65825;52.232;10.566;2023-03-19T08:02:17;11.68;;;4.55;;
76852;SDS011;65825;52.232;10.566;2023-03-19T08:04:42;6.57;;;4.28;;
76852;SDS011;65825;52.232;10.566;2023-03-19T08:07:08;12.90;;;5.00;;
76852;SDS011;65825;52.232;10.566;2023-03-19T08:09:37;8.63;;;4.63;;
76852;SDS011;65825;52.232;10.566;2023-03-19T08:12:03;8.27;;;5.28;;
76852;SDS011;65825;52.232;10.566;2023-03-19T08:14:30;7.95;;;4.32;;
76852;SDS011;65825;52.232;10.566;2023-03-19T08:16:55;11.02;;;4.65;;
76852;SDS011;65825;52.232;10.566;2023-03-19T08:19:21;7.27;;;4.63;;
76852;SDS011;65825;52.232;10.566;2023-03-19T08:21:46;7.90;;;4.45;;
76852;SDS011;65825;52.232;10.566;2023-03-19T08:24:12;10.17;;;5.27;;
76852;SDS011;65825;52.232;10.566;2023-03-19T08:26:37;10.40;;;4.63;;
76852;SDS011;65825;52.232;10.566;2023-03-19T08:29:02;7.60;;;4.53;;
76852;SDS011;65825;52.232;10.566;2023-03-19T08:31:28;7.88;;;3.95;;
76852;SDS011;65825;52.232;10.566;2023-03-19T08:33:54;7.07;;;3.95;;
76852;SDS011;65825;52.232;10.566;2023-03-19T08:36:19;9.63;;;4.72;;
76852;SDS011;65825;52.232;10.566;2023-03-19T08:38:45;7.23;;;3.90;;
76852;SDS011;65825;52.232;10.566;2023-03-19T08:41:10;6.85;;;3.58;;
76852;SDS011;65825;52.232;10.566;2023-03-19T08:43:36;5.65;;;3.22;;
76852;SDS011;65825;52.232;10.566;2023-03-19T08:46:02;6.50;;;3.22;;
76852;SDS011;65825;52.232;10.566;2023-03-19T08:50:54;5.00;;;2.85;;
76852;SDS011;65825;52.232;10.566;2023-03-19T08:53:21;5.10;;;2.78;;
76852;SDS011;65825;52.232;10.566;2023-03-19T08:55:54;4.93;;;2.70;;
76852;SDS011;65825;52.232;10.566;2023-03-19T08:58:21;4.97;;;2.53;;
76852;SDS011;65825;52.232;10.566;2023-03-19T09:00:47;3.95;;;2.60;;
76852;SDS011;65825;52.232;10.566;2023-03-19T09:03:13;4.15;;;2.30;;
76852;SDS011;65825;52.232;10.566;2023-03-19T09:05:39;5.75;;;2.78;;
76852;SDS011;65825;52.232;10.566;2023-03-19T09:08:04;7.55;;;3.60;;
76852;SDS011;65825;52.232;10.566;2023-03-19T09:10:30;5.40;;;3.03;;
76852;SDS011;65825;52.232;10.566;2023-03-19T09:12:55;4.88;;;2.78;;
76852;SDS011;65825;52.232;10.566;2023-03-19T09:15:20;5.07;;;2.50;;
76852;SDS011;65825;52.232;10.566;2023-03-19T09:17:46;4.63;;;3.00;;
76852;SDS011;65825;52.232;10.566;2023-03-19T09:20:11;5.77;;;2.90;;
76852;SDS011;65825;52.232;10.566;2023-03-19T09:22:37;6.03;;;2.92;;
76852;SDS011;65825;52.232;10.566;2023-03-19T09:25:02;5.53;;;2.40;;
76852;SDS011;65825;52.232;10.566;2023-03-19T09:27:27;3.63;;;2.03;;
76852;SDS011;65825;52.232;10.566;2023-03-19T09:29:53;3.10;;;1.70;;
76852;SDS011;65825;52.232;10.566;2023-03-19T09:32:19;3.85;;;1.58;;
76852;SDS011;65825;52.232;10.566;2023-03-19T09:34:44;2.78;;;1.70;;
76852;SDS011;65825;52.232;10.566;2023-03-19T09:37:11;4.85;;;1.60;;
76852;SDS011;65825;52.232;10.566;2023-03-19T09:39:37;2.67;;;1.40;;
76852;SDS011;65825;52.232;10.566;2023-03-19T09:42:05;2.65;;;1.58;;
76852;SDS011;65825;52.232;10.566;2023-03-19T09:44:55;2.92;;;1.40;;
76852;SDS011;65825;52.232;10.566;2023-03-19T09:47:31;2.40;;;1.55;;
76852;SDS011;65825;52.232;10.566;2023-03-19T09:49:59;3.72;;;1.50;;
76852;SDS011;65825;52.232;10.566;2023-03-19T09:52:45;2.22;;;1.20;;
76852;SDS011;65825;52.232;10.566;2023-03-19T09:57:52;2.75;;;1.60;;
76852;SDS011;65825;52.232;10.566;2023-03-19T10:00:29;3.30;;;1.70;;
76852;SDS011;65825;52.232;10.566;2023-03-19T10:03:05;2.92;;;1.33;;
76852;SDS011;65825;52.232;10.566;2023-03-19T10:09:22;2.42;;;1.38;;
76852;SDS011;65825;52.232;10.566;2023-03-19T10:17:29;3.15;;;1.70;;
76852;SDS011;65825;52.232;10.566;2023-03-19T10:20:00;2.40;;;1.70;;
76852;SDS011;65825;52.232;10.566;2023-03-19T10:22:40;4.38;;;2.03;;
76852;SDS011;65825;52.232;10.566;2023-03-19T10:25:13;2.78;;;1.70;;
76852;SDS011;65825;52.232;10.566;2023-03-19T10:27:44;3.67;;;1.70;;
76852;SDS011;65825;52.232;10.566;2023-03-19T10:30:15;2.60;;;1.50;;
76852;SDS011;65825;52.232;10.566;2023-03-19T10:32:45;2.63;;;1.63;;
76852;SDS011;65825;52.232;10.566;2023-03-19T10:35:18;4.57;;;2.03;;
76852;SDS011;65825;52.232;10.566;2023-03-19T10:37:47;4.22;;;2.30;;
76852;SDS011;65825;52.232;10.566;2023-03-19T10:40:25;3.58;;;2.15;;
76852;SDS011;65825;52.232;10.566;2023-03-19T10:43:15;5.00;;;2.33;;
76852;SDS011;65825;52.232;10.566;2023-03-19T10:45:44;7.35;;;2.20;;
76852;SDS011;65825;52.232;10.566;2023-03-19T10:48:17;4.45;;;2.10;;
76852;SDS011;65825;52.232;10.566;2023-03-19T10:50:49;3.88;;;1.88;;
76852;SDS011;65825;52.232;10.566;2023-03-19T10:53:33;2.90;;;1.65;;
76852;SDS011;65825;52.232;10.566;2023-03-19T10:56:41;2.85;;;1.65;;
76852;SDS011;65825;52.232;10.566;2023-03-19T10:58:56;3.45;;;1.77;;
76852;SDS011;65825;52.232;10.566;2023-03-19T11:01:26;4.00;;;2.08;;
76852;SDS011;65825;52.232;10.566;2023-03-19T11:03:57;4.00;;;2.00;;
76852;SDS011;65825;52.232;10.566;2023-03-19T11:08:59;3.53;;;1.92;;
76852;SDS011;65825;52.232;10.566;2023-03-19T11:14:20;3.25;;;2.20;;
76852;SDS011;65825;52.232;10.566;2023-03-19T11:19:41;2.72;;;1.70;;
76852;SDS011;65825;52.232;10.566;2023-03-19T11:22:20;5.57;;;1.67;;
76852;SDS011;65825;52.232;10.566;2023-03-19T11:24:48;3.50;;;1.95;;
76852;SDS011;65825;52.232;10.566;2023-03-19T11:27:25;5.88;;;2.15;;
76852;SDS011;65825;52.232;10.566;2023-03-19T11:29:53;4.85;;;1.73;;
76852;SDS011;65825;52.232;10.566;2023-03-19T11:42:23;5.35;;;1.83;;
76852;SDS011;65825;52.232;10.566;2023-03-19T11:50:57;4.18;;;2.10;;
76852;SDS011;65825;52.232;10.566;2023-03-19T11:53:29;5.53;;;2.20;;
76852;SDS011;65825;52.232;10.566;2023-03-19T11:56:12;4.05;;;2.17;;
76852;SDS011;65825;52.232;10.566;2023-03-19T11:59:23;3.33;;;2.00;;
76852;SDS011;65825;52.232;10.566;2023-03-19T12:07:32;6.88;;;2.13;;
76852;SDS011;65825;52.232;10.566;2023-03-19T12:10:28;3.85;;;2.17;;
76852;SDS011;65825;52.232;10.566;2023-03-19T12:21:23;4.90;;;2.30;;
76852;SDS011;65825;52.232;10.566;2023-03-19T12:29:40;5.15;;;2.40;;
76852;SDS011;65825;52.232;10.566;2023-03-19T12:32:43;4.78;;;2.30;;
76852;SDS011;65825;52.232;10.566;2023-03-19T12:35:35;5.85;;;2.67;;
76852;SDS011;65825;52.232;10.566;2023-03-19T12:40:59;4.60;;;2.45;;
76852;SDS011;65825;52.232;10.566;2023-03-19T12:46:15;7.10;;;2.80;;
76852;SDS011;65825;52.232;10.566;2023-03-19T12:48:50;6.75;;;2.78;;
76852;SDS011;65825;52.232;10.566;2023-03-19T12:51:21;5.63;;;2.65;;
76852;SDS011;65825;52.232;10.566;2023-03-19T12:54:00;4.70;;;2.50;;
76852;SDS011;65825;52.232;10.566;2023-03-19T12:56:43;7.28;;;2.40;;
76852;SDS011;65825;52.232;10.566;2023-03-19T13:02:23;7.90;;;3.00;;
76852;SDS011;65825;52.232;10.566;2023-03-19T13:04:58;4.85;;;2.45;;
76852;SDS011;65825;52.232;10.566;2023-03-19T13:07:35;7.80;;;2.40;;
76852;SDS011;65825;52.232;10.566;2023-03-19T13:10:12;6.32;;;2.38;;
76852;SDS011;65825;52.232;10.566;2023-03-19T13:12:42;7.32;;;2.78;;
76852;SDS011;65825;52.232;10.566;2023-03-19T13:17:56;6.10;;;2.85;;
76852;SDS011;65825;52.232;10.566;2023-03-19T13:23:33;10.27;;;4.72;;
76852;SDS011;65825;52.232;10.566;2023-03-19T13:26:01;8.20;;;3.42;;
76852;SDS011;65825;52.232;10.566;2023-03-19T13:28:34;5.82;;;2.90;;
76852;SDS011;65825;52.232;10.566;2023-03-19T13:33:31;7.10;;;2.08;;
76852;SDS011;65825;52.232;10.566;2023-03-19T13:36:03;5.80;;;1.80;;
76852;SDS011;65825;52.232;10.566;2023-03-19T13:41:03;5.32;;;2.40;;
76852;SDS011;65825;52.232;10.566;2023-03-19T13:46:54;5.67;;;2.33;;
76852;SDS011;65825;52.232;10.566;2023-03-19T13:49:07;5.80;;;2.60;;
76852;SDS011;65825;52.232;10.566;2023-03-19T13:51:54;7.53;;;3.20;;
76852;SDS011;65825;52.232;10.566;2023-03-19T13:54:33;7.15;;;2.60;;
76852;SDS011;65825;52.232;10.566;2023-03-19T13:59:38;8.48;;;2.50;;
76852;SDS011;65825;52.232;10.566;2023-03-19T14:02:43;5.90;;;2.25;;
76852;SDS011;65825;52.232;10.566;2023-03-19T14:07:42;6.60;;;2.40;;
76852;SDS011;65825;52.232;10.566;2023-03-19T14:10:17;5.85;;;2.90;;
76852;SDS011;65825;52.232;10.566;2023-03-19T14:12:49;6.07;;;2.22;;
76852;SDS011;65825;52.232;10.566;2023-03-19T14:15:20;4.57;;;2.30;;
76852;SDS011;65825;52.232;10.566;2023-03-19T14:18:00;3.88;;;2.30;;
76852;SDS011;65825;52.232;10.566;2023-03-19T14:20:31;4.30;;;2.28;;
76852;SDS011;65825;52.232;10.566;2023-03-19T14:25:50;5.25;;;2.33;;
76852;SDS011;65825;52.232;10.566;2023-03-19T14:36:51;3.38;;;2.00;;
76852;SDS011;65825;52.232;10.566;2023-03-19T14:39:26;5.18;;;2.30;;
76852;SDS011;65825;52.232;10.566;2023-03-19T14:42:05;4.18;;;2.25;;
76852;SDS011;65825;52.232;10.566;2023-03-19T14:50:24;4.40;;;2.13;;
76852;SDS011;65825;52.232;10.566;2023-03-19T14:52:51;5.35;;;2.65;;
76852;SDS011;65825;52.232;10.566;2023-03-19T14:57:59;6.05;;;3.00;;
76852;SDS011;65825;52.232;10.566;2023-03-19T15:00:25;5.43;;;2.85;;
76852;SDS011;65825;52.232;10.566;2023-03-19T15:02:50;4.53;;;2.63;;
76852;SDS011;65825;52.232;10.566;2023-03-19T15:05:24;5.47;;;2.30;;
76852;SDS011;65825;52.232;10.566;2023-03-19T15:07:53;5.60;;;2.90;;
76852;SDS011;65825;52.232;10.566;2023-03-19T15:10:22;7.72;;;3.08;;
76852;SDS011;65825;52.232;10.566;2023-03-19T15:13:05;5.88;;;2.92;;
76852;SDS011;65825;52.232;10.566;2023-03-19T15:15:46;8.98;;;2.70;;
76852;SDS011;65825;52.232;10.566;2023-03-19T15:18:21;4.75;;;2.53;;
76852;SDS011;65825;52.232;10.566;2023-03-19T15:20:50;3.60;;;1.92;;
76852;SDS011;65825;52.232;10.566;2023-03-19T15:23:21;2.92;;;1.90;;
76852;SDS011;65825;52.232;10.566;2023-03-19T15:25:50;3.17;;;1.60;;
76852;SDS011;65825;52.232;10.566;2023-03-19T15:28:21;3.50;;;1.67;;
76852;SDS011;65825;52.232;10.566;2023-03-19T15:30:53;3.70;;;1.60;;
76852;SDS011;65825;52.232;10.566;2023-03-19T15:33:22;3.67;;;1.70;;
76852;SDS011;65825;52.232;10.566;2023-03-19T15:35:53;5.22;;;1.70;;
76852;SDS011;65825;52.232;10.566;2023-03-19T15:38:27;4.65;;;1.70;;
76852;SDS011;65825;52.232;10.566;2023-03-19T15:40:57;2.85;;;1.70;;
76852;SDS011;65825;52.232;10.566;2023-03-19T15:43:24;5.22;;;2.03;;
76852;SDS011;65825;52.232;10.566;2023-03-19T15:45:50;1.63;;;1.20;;
76852;SDS011;65825;52.232;10.566;2023-03-19T15:48:23;3.03;;;1.60;;
76852;SDS011;65825;52.232;10.566;2023-03-19T15:50:54;2.95;;;1.50;;
76852;SDS011;65825;52.232;10.566;2023-03-19T15:53:23;2.90;;;1.50;;
76852;SDS011;65825;52.232;10.566;2023-03-19T15:55:52;2.97;;;1.52;;
76852;SDS011;65825;52.232;10.566;2023-03-19T15:58:23;3.30;;;1.55;;
76852;SDS011;65825;52.232;10.566;2023-03-19T16:00:52;3.10;;;1.60;;
76852;SDS011;65825;52.232;10.566;2023-03-19T16:03:21;2.60;;;1.42;;
76852;SDS011;65825;52.232;10.566;2023-03-19T16:06:02;2.90;;;1.60;;
76852;SDS011;65825;52.232;10.566;2023-03-19T16:08:30;4.55;;;1.90;;
76852;SDS011;65825;52.232;10.566;2023-03-19T16:11:43;3.03;;;1.70;;
76852;SDS011;65825;52.232;10.566;2023-03-19T16:16:34;5.07;;;2.38;;
76852;SDS011;65825;52.232;10.566;2023-03-19T16:19:02;3.33;;;1.77;;
76852;SDS011;65825;52.232;10.566;2023-03-19T16:21:33;3.33;;;1.75;;
76852;SDS011;65825;52.232;10.566;2023-03-19T16:29:02;4.37;;;1.97;;
76852;SDS011;65825;52.232;10.566;2023-03-19T16:31:29;3.80;;;2.30;;
76852;SDS011;65825;52.232;10.566;2023-03-19T16:34:00;4.65;;;2.00;;
76852;SDS011;65825;52.232;10.566;2023-03-19T16:36:26;7.60;;;2.58;;
76852;SDS011;65825;52.232;10.566;2023-03-19T16:38:55;5.57;;;3.03;;
76852;SDS011;65825;52.232;10.566;2023-03-19T16:41:35;6.57;;;4.07;;
76852;SDS011;65825;52.232;10.566;2023-03-19T16:44:11;5.80;;;2.63;;
76852;SDS011;65825;52.232;10.566;2023-03-19T16:46:39;5.55;;;2.70;;
76852;SDS011;65825;52.232;10.566;2023-03-19T16:49:05;5.25;;;2.50;;
76852;SDS011;65825;52.232;10.566;2023-03-19T16:51:30;6.07;;;2.85;;